Flight Number: AVA2083 Duration: 1:45
Departure: Indianapolis Intl Airport (KIND) at 01:00 Distance: 662.482 Nm
Arrival: Dallas/Fort Worth Int`l Airport (KDFW) at 02:45 Equipment: B737

Weather Information
INDIANAPOLIS INTERNATIONAL AIRPORT , IN, United States (KIND) 39-43N 86-17W 242M Aug 14, 2020 - 06:54 PM EDT / 2020.08.14 2254 UTC
Wind: from the NNW (330 degrees) at 10 MPH (9 KT):0
Visibility: 10 mile(s):0
Sky conditions: partly cloudy Temperature: 84.9 F (29.4 C) Dew Point: 62.1 F (16.7 C) Relative Humidity: 46% Pressure (altimeter): 29.94 in. Hg (1013 hPa)
ob: KIND 142254Z 33009KT 10SM FEW055 SCT190 SCT250 29/17 A2994 RMK AO2 SLP131 T02940167 cycle: 23
Sunrise: 11:00 Sunset: 00:38 (UTC)

DALLAS/FT. WORTH INTERNATIONAL AIRPORT , TX, United States (KDFW) 32-54N 097-02W 174M Aug 14, 2020 - 06:53 PM EDT / 2020.08.14 2253 UTC
Wind: from the S (180 degrees) at 12 MPH (10 KT):0
Visibility: 10 mile(s):0
Sky conditions: clear Temperature: 102.0 F (38.9 C) Heat index: 108.9 F (42.7 C):1 Dew Point: 69.1 F (20.6 C) Relative Humidity: 34% Pressure (altimeter): 29.77 in. Hg (1008 hPa)
ob: KDFW 142253Z 18010KT 10SM CLR 39/21 A2977 RMK AO2 SLP071 T03890206 cycle: 23
Sunrise: 11:54 Sunset: 01:10 (UTC)

TAF:2020/08/14 21:57 TAF AMD KDFW 142057Z 1421/1524 17010G20KT P6SM FEW060 FM150200 16008KT P6SM FEW250

This route has never been flown.

Route map